createdAt,value
2022-12-25T00:02:18.641Z,98824.56
2022-12-25T00:04:45.175Z,98827.97
2022-12-25T00:07:12.296Z,98832.38
2022-12-25T00:09:38.923Z,98827.97
2022-12-25T00:12:05.601Z,98833.09
2022-12-25T00:14:32.267Z,98846.13
2022-12-25T00:16:58.810Z,98837.31
2022-12-25T00:19:25.255Z,98848.53
2022-12-25T00:21:51.717Z,98838.88
2022-12-25T00:24:18.200Z,98843.97
2022-12-25T00:26:44.737Z,98838.72
2022-12-25T00:29:13.635Z,98841.28
2022-12-25T00:31:40.564Z,98836.78
2022-12-25T00:34:07.054Z,98834.13
2022-12-25T00:36:39.489Z,98842.94
2022-12-25T00:39:08.126Z,98850.81
2022-12-25T00:41:55.077Z,98845.34
2022-12-25T00:44:21.685Z,98856.81
2022-12-25T00:46:48.322Z,98861.13
2022-12-25T00:49:14.879Z,98868.00
2022-12-25T00:51:41.424Z,98871.63
2022-12-25T00:54:08.184Z,98886.66
2022-12-25T00:56:34.948Z,98890.16
2022-12-25T00:59:01.659Z,98877.88
2022-12-25T01:01:28.307Z,98878.88
2022-12-25T01:03:55.078Z,98882.41
2022-12-25T01:06:21.572Z,98894.72
2022-12-25T01:09:06.817Z,98890.41
2022-12-25T01:11:33.359Z,98905.34
2022-12-25T01:13:59.859Z,98897.41
2022-12-25T01:16:28.246Z,98888.69
2022-12-25T01:18:55.296Z,98886.19
2022-12-25T01:21:22.369Z,98891.47
2022-12-25T01:23:53.951Z,98888.00
2022-12-25T01:26:24.232Z,98887.91
2022-12-25T01:28:51.682Z,98894.91
2022-12-25T01:31:20.246Z,98884.41
2022-12-25T01:33:47.904Z,98886.97
2022-12-25T01:36:16.675Z,98887.84
2022-12-25T01:38:43.692Z,98887.84
2022-12-25T01:41:11.740Z,98885.13
2022-12-25T01:43:57.883Z,98879.81
2022-12-25T01:46:24.583Z,98878.03
2022-12-25T01:48:52.421Z,98878.88
2022-12-25T01:51:28.989Z,98877.84
2022-12-25T01:53:59.748Z,98877.75
2022-12-25T01:56:27.591Z,98874.16
2022-12-25T01:58:55.577Z,98878.50
2022-12-25T02:01:22.155Z,98892.44
2022-12-25T02:03:48.809Z,98885.38
2022-12-25T02:06:15.507Z,98876.53
2022-12-25T02:08:42.523Z,98871.22
2022-12-25T02:11:29.244Z,98864.09
2022-12-25T02:13:55.814Z,98862.31
2022-12-25T02:16:26.161Z,98868.34
2022-12-25T02:18:56.814Z,98871.91
2022-12-25T02:21:35.075Z,98877.97
2022-12-25T02:24:35.862Z,98890.22
2022-12-25T02:27:28.579Z,98891.81
2022-12-25T02:30:07.613Z,98898.94
2022-12-25T02:32:37.095Z,98882.31
2022-12-25T02:35:18.412Z,98886.69
2022-12-25T02:38:11.463Z,98891.91
2022-12-25T02:40:42.558Z,98884.00
2022-12-25T02:43:35.803Z,98886.69
2022-12-25T02:46:33.909Z,98884.16
2022-12-25T02:49:24.027Z,98894.44
2022-12-25T02:52:17.044Z,98895.16
2022-12-25T02:55:09.389Z,98889.75
2022-12-25T02:57:56.836Z,98890.72
2022-12-25T03:00:42.104Z,98895.22
2022-12-25T03:03:30.969Z,98895.22
2022-12-25T03:06:19.710Z,98886.47
2022-12-25T03:08:52.721Z,98899.69
2022-12-25T03:11:39.646Z,98894.44
2022-12-25T03:14:27.460Z,98899.41
2022-12-25T03:16:56.652Z,98902.19
2022-12-25T03:19:47.602Z,98896.06
2022-12-25T03:22:50.631Z,98893.44
2022-12-25T03:25:37.349Z,98894.22
2022-12-25T03:28:05.291Z,98888.78
2022-12-25T03:31:05.528Z,98890.34
2022-12-25T03:34:27.973Z,98878.13
2022-12-25T03:37:19.420Z,98883.38
2022-12-25T03:40:20.673Z,98881.63
2022-12-25T03:43:13.608Z,98895.69
2022-12-25T03:46:07.275Z,98892.03
2022-12-25T03:48:58.856Z,98899.00
2022-12-25T03:51:49.848Z,98899.88
2022-12-25T03:54:39.824Z,98896.44
2022-12-25T03:57:25.638Z,98890.34
2022-12-25T04:00:10.724Z,98886.84
2022-12-25T04:02:56.512Z,98882.22
2022-12-25T04:05:41.815Z,98875.56
2022-12-25T04:08:26.707Z,98873.69
2022-12-25T04:11:12.496Z,98859.06
2022-12-25T04:13:57.313Z,98867.88
2022-12-25T04:16:42.161Z,98865.34
2022-12-25T04:19:27.895Z,98870.59
2022-12-25T04:22:12.848Z,98877.38
2022-12-25T04:24:57.651Z,98882.63
2022-12-25T04:27:42.640Z,98883.53
2022-12-25T04:30:27.780Z,98886.97
2022-12-25T04:33:17.707Z,98886.69
2022-12-25T04:36:09.263Z,98880.72
2022-12-25T04:38:37.248Z,98876.59
2022-12-25T04:41:04.561Z,98874.16
2022-12-25T04:43:31.259Z,98874.16
2022-12-25T04:45:59.724Z,98879.50
2022-12-25T04:48:27.489Z,98872.69
2022-12-25T04:50:54.094Z,98873.72
2022-12-25T04:53:20.757Z,98863.97
2022-12-25T04:55:50.290Z,98863.09
2022-12-25T04:58:16.761Z,98863.00
2022-12-25T05:00:43.311Z,98865.63
2022-12-25T05:03:09.946Z,98867.38
2022-12-25T05:05:42.509Z,98863.91
2022-12-25T05:08:08.984Z,98870.97
2022-12-25T05:10:35.621Z,98857.94
2022-12-25T05:13:02.049Z,98860.41
2022-12-25T05:15:28.604Z,98857.78
2022-12-25T05:17:55.119Z,98854.28
2022-12-25T05:20:21.572Z,98841.31
2022-12-25T05:22:48.080Z,98837.81
2022-12-25T05:25:14.595Z,98833.50
2022-12-25T05:27:41.076Z,98828.38
2022-12-25T05:30:08.542Z,98828.44
2022-12-25T05:32:35.035Z,98826.75
2022-12-25T05:35:01.521Z,98833.69
2022-12-25T05:37:31.764Z,98828.44
2022-12-25T05:39:59.165Z,98837.25
2022-12-25T05:42:25.681Z,98832.91
2022-12-25T05:44:52.139Z,98834.81
2022-12-25T05:47:18.696Z,98835.72
2022-12-25T05:49:45.221Z,98847.19
2022-12-25T05:52:11.770Z,98850.56
2022-12-25T05:54:38.338Z,98848.75
2022-12-25T05:57:04.861Z,98846.19
2022-12-25T05:59:32.459Z,98844.56
2022-12-25T06:02:00.023Z,98841.94
2022-12-25T06:04:26.919Z,98828.81
2022-12-25T06:06:53.423Z,98828.88
2022-12-25T06:09:22.937Z,98835.19
2022-12-25T06:11:49.371Z,98826.56
2022-12-25T06:14:16.249Z,98825.72
2022-12-25T06:16:42.805Z,98821.34
2022-12-25T06:19:09.412Z,98828.38
2022-12-25T06:21:36.083Z,98821.47
2022-12-25T06:24:02.888Z,98826.75
2022-12-25T06:26:29.482Z,98832.03
2022-12-25T06:28:55.968Z,98829.41
2022-12-25T06:31:24.069Z,98832.13
2022-12-25T06:33:50.758Z,98833.03
2022-12-25T06:36:23.249Z,98832.16
2022-12-25T06:38:50.600Z,98829.53
2022-12-25T06:41:19.679Z,98831.34
2022-12-25T06:43:57.260Z,98825.16
2022-12-25T06:46:26.142Z,98827.91
2022-12-25T06:48:53.335Z,98833.22
2022-12-25T06:51:24.720Z,98833.22
2022-12-25T06:53:52.382Z,98833.31
2022-12-25T06:56:22.090Z,98825.47
2022-12-25T06:58:54.592Z,98822.09
2022-12-25T07:01:25.587Z,98827.53
2022-12-25T07:03:55.546Z,98823.97
2022-12-25T07:06:22.529Z,98814.34
2022-12-25T07:08:51.973Z,98815.16
2022-12-25T07:11:18.764Z,98813.41
2022-12-25T07:13:45.285Z,98828.28
2022-12-25T07:16:12.785Z,98830.94
2022-12-25T07:18:40.486Z,98831.00
2022-12-25T07:21:15.763Z,98827.44
2022-12-25T07:23:43.732Z,98816.97
2022-12-25T07:26:12.227Z,98814.41
2022-12-25T07:28:40.010Z,98810.09
2022-12-25T07:31:10.658Z,98812.66
2022-12-25T07:33:37.271Z,98809.94
2022-12-25T07:36:05.507Z,98810.72
2022-12-25T07:38:32.784Z,98802.97
2022-12-25T07:40:59.497Z,98804.00
2022-12-25T07:43:26.512Z,98813.72
2022-12-25T07:46:00.790Z,98804.22
2022-12-25T07:48:28.275Z,98803.38
2022-12-25T07:51:02.290Z,98795.47
2022-12-25T07:53:28.880Z,98787.59
2022-12-25T07:56:11.872Z,98789.41
2022-12-25T07:58:39.125Z,98782.38
2022-12-25T08:01:13.537Z,98776.25
2022-12-25T08:03:40.266Z,98771.78
2022-12-25T08:06:09.163Z,98775.38
2022-12-25T08:08:36.546Z,98770.13
2022-12-25T08:11:03.297Z,98756.06
2022-12-25T08:13:34.029Z,98748.19
2022-12-25T08:16:02.083Z,98742.13
2022-12-25T08:18:30.602Z,98734.25
2022-12-25T08:21:02.082Z,98733.38
2022-12-25T08:23:28.614Z,98743.03
2022-12-25T08:26:04.496Z,98738.72
2022-12-25T08:28:33.568Z,98729.94
2022-12-25T08:31:00.295Z,98729.09
2022-12-25T08:33:26.931Z,98719.50
2022-12-25T08:35:53.568Z,98723.94
2022-12-25T08:38:20.065Z,98726.59
2022-12-25T08:40:46.560Z,98716.94
2022-12-25T08:43:13.052Z,98725.84
2022-12-25T08:45:39.548Z,98744.34
2022-12-25T08:48:05.986Z,98743.53
2022-12-25T08:50:32.557Z,98739.22
2022-12-25T08:52:59.031Z,98744.53
2022-12-25T08:55:25.525Z,98747.28
2022-12-25T08:57:54.013Z,98754.34
2022-12-25T09:00:20.703Z,98742.91
2022-12-25T09:02:47.311Z,98741.16
2022-12-25T09:05:13.870Z,98744.66
2022-12-25T09:07:40.453Z,98746.44
2022-12-25T09:10:07.545Z,98761.38
2022-12-25T09:12:34.072Z,98760.50
2022-12-25T09:15:00.577Z,98759.66
2022-12-25T09:17:27.098Z,98757.91
2022-12-25T09:19:53.605Z,98750.84
2022-12-25T09:22:20.122Z,98749.06
2022-12-25T09:24:46.590Z,98757.00
2022-12-25T09:27:13.116Z,98747.28
2022-12-25T09:29:40.424Z,98740.25
2022-12-25T09:32:07.346Z,98733.19
2022-12-25T09:34:34.057Z,98735.84
2022-12-25T09:37:00.744Z,98730.59
2022-12-25T09:39:30.584Z,98735.88
2022-12-25T09:42:04.369Z,98731.47
2022-12-25T09:44:38.245Z,98729.72
2022-12-25T09:47:12.891Z,98718.28
2022-12-25T09:49:39.333Z,98724.44
2022-12-25T09:52:12.546Z,98728.81
2022-12-25T09:54:48.485Z,98733.25
2022-12-25T09:57:15.587Z,98730.63
2022-12-25T09:59:44.175Z,98740.31
2022-12-25T10:02:29.468Z,98729.78
2022-12-25T10:05:40.911Z,98716.56
2022-12-25T10:08:24.954Z,98713.94
2022-12-25T10:10:58.694Z,98708.66
2022-12-25T10:14:05.812Z,98698.97
2022-12-25T10:16:37.364Z,98690.19
2022-12-25T10:19:26.833Z,98699.00
2022-12-25T10:21:58.405Z,98703.38
2022-12-25T10:24:36.791Z,98694.56
2022-12-25T10:27:11.534Z,98684.03
2022-12-25T10:29:39.668Z,98658.47
2022-12-25T10:32:06.315Z,98669.94
2022-12-25T10:34:33.068Z,98674.34
2022-12-25T10:36:59.561Z,98678.75
2022-12-25T10:39:26.663Z,98685.78
2022-12-25T10:42:20.991Z,98672.56
2022-12-25T10:44:59.514Z,98658.50
2022-12-25T10:47:31.305Z,98657.59
2022-12-25T10:49:59.177Z,98663.78
2022-12-25T10:52:28.804Z,98666.41
2022-12-25T10:54:56.248Z,98651.47
2022-12-25T10:57:25.576Z,98645.31
2022-12-25T10:59:56.800Z,98632.13
2022-12-25T11:02:27.921Z,98622.44
2022-12-25T11:05:07.854Z,98635.63
2022-12-25T11:07:46.757Z,98640.03
2022-12-25T11:10:23.099Z,98647.03
2022-12-25T11:12:49.648Z,98647.06
2022-12-25T11:15:34.744Z,98637.38
2022-12-25T11:18:01.268Z,98624.16
2022-12-25T11:20:27.959Z,98618.00
2022-12-25T11:22:54.710Z,98620.63
2022-12-25T11:25:24.121Z,98628.59
2022-12-25T11:28:02.812Z,98625.94
2022-12-25T11:30:32.432Z,98623.28
2022-12-25T11:33:04.917Z,98627.69
2022-12-25T11:35:45.932Z,98610.09
2022-12-25T11:38:12.532Z,98604.81
2022-12-25T11:40:47.655Z,98593.34
2022-12-25T11:43:35.927Z,98598.63
2022-12-25T11:46:37.704Z,98608.31
2022-12-25T11:49:14.295Z,98594.22
2022-12-25T11:51:44.936Z,98592.47
2022-12-25T11:54:25.119Z,98598.66
2022-12-25T11:56:52.782Z,98600.41
2022-12-25T11:59:27.886Z,98606.59
2022-12-25T12:02:13.384Z,98589.88
2022-12-25T12:04:48.847Z,98603.03
2022-12-25T12:07:31.395Z,98610.09
2022-12-25T12:10:26.989Z,98599.50
2022-12-25T12:13:17.992Z,98602.16
2022-12-25T12:15:45.885Z,98594.22
2022-12-25T12:18:25.948Z,98568.69
2022-12-25T12:21:07.708Z,98559.00
2022-12-25T12:23:51.763Z,98552.81
2022-12-25T12:26:36.757Z,98561.66
2022-12-25T12:29:05.809Z,98563.44
2022-12-25T12:31:45.479Z,98552.00
2022-12-25T12:34:28.096Z,98544.09
2022-12-25T12:37:06.720Z,98541.44
2022-12-25T12:39:40.522Z,98546.75
2022-12-25T12:42:21.116Z,98546.72
2022-12-25T12:44:49.705Z,98542.31
2022-12-25T12:47:29.545Z,98533.53
2022-12-25T12:50:00.416Z,98530.88
2022-12-25T12:52:32.941Z,98530.88
2022-12-25T12:55:07.170Z,98523.84
2022-12-25T12:57:41.707Z,98522.09
2022-12-25T13:00:19.752Z,98521.22
2022-12-25T13:02:58.274Z,98516.81
2022-12-25T13:05:56.047Z,98513.31
2022-12-25T13:08:42.588Z,98516.84
2022-12-25T13:11:21.192Z,98501.00
2022-12-25T13:13:49.616Z,98493.09
2022-12-25T13:16:31.022Z,98493.94
2022-12-25T13:18:58.338Z,98493.06
2022-12-25T13:21:28.099Z,98493.97
2022-12-25T13:24:10.618Z,98489.56
2022-12-25T13:26:38.899Z,98486.06
2022-12-25T13:29:11.267Z,98479.88
2022-12-25T13:31:41.079Z,98485.16
2022-12-25T13:34:43.204Z,98488.69
2022-12-25T13:37:15.605Z,98481.66
2022-12-25T13:39:52.583Z,98483.41
2022-12-25T13:42:25.663Z,98480.78
2022-12-25T13:44:58.654Z,98477.25
2022-12-25T13:47:31.903Z,98489.56
2022-12-25T13:50:00.472Z,98476.38
2022-12-25T13:52:35.567Z,98471.97
2022-12-25T13:55:04.783Z,98478.16
2022-12-25T13:57:36.405Z,98481.66
2022-12-25T14:00:07.828Z,98473.75
2022-12-25T14:02:38.433Z,98455.28
2022-12-25T14:05:24.946Z,98450.88
2022-12-25T14:07:53.509Z,98453.53
2022-12-25T14:10:22.258Z,98450.91
2022-12-25T14:12:51.143Z,98444.72
2022-12-25T14:15:22.937Z,98431.53
2022-12-25T14:17:51.514Z,98425.38
2022-12-25T14:20:40.644Z,98430.69
2022-12-25T14:23:07.740Z,98436.84
2022-12-25T14:25:41.580Z,98421.91
2022-12-25T14:28:17.748Z,98416.59
2022-12-25T14:30:47.964Z,98412.22
2022-12-25T14:33:25.334Z,98400.78
2022-12-25T14:35:55.239Z,98391.97
2022-12-25T14:38:27.346Z,98392.00
2022-12-25T14:41:25.793Z,98380.56
2022-12-25T14:43:54.727Z,98375.31
2022-12-25T14:46:29.953Z,98370.91
2022-12-25T14:49:22.039Z,98361.22
2022-12-25T14:51:48.558Z,98347.19
2022-12-25T14:54:23.304Z,98347.19
2022-12-25T14:56:53.811Z,98346.28
2022-12-25T14:59:27.177Z,98329.59
2022-12-25T15:01:57.286Z,98328.72
2022-12-25T15:04:24.965Z,98341.91
2022-12-25T15:06:55.939Z,98337.50
2022-12-25T15:09:22.743Z,98332.25
2022-12-25T15:11:55.421Z,98325.19
2022-12-25T15:14:23.392Z,98312.91
2022-12-25T15:16:57.312Z,98300.59
2022-12-25T15:19:31.752Z,98296.22
2022-12-25T15:22:02.748Z,98304.13
2022-12-25T15:24:29.464Z,98310.28
2022-12-25T15:26:59.146Z,98293.59
2022-12-25T15:29:59.610Z,98299.75
2022-12-25T15:32:17.728Z,98298.84
2022-12-25T15:34:47.014Z,98311.13
2022-12-25T15:37:14.435Z,98305.81
2022-12-25T15:39:41.019Z,98296.16
2022-12-25T15:42:19.824Z,98304.06
2022-12-25T15:44:46.519Z,98300.53
2022-12-25T15:47:15.471Z,98296.09
2022-12-25T15:49:42.218Z,98279.34
2022-12-25T15:52:13.092Z,98277.50
2022-12-25T15:54:39.618Z,98248.41
2022-12-25T15:57:15.877Z,98248.41
2022-12-25T15:59:42.317Z,98247.50
2022-12-25T16:02:15.921Z,98251.94
2022-12-25T16:04:42.577Z,98245.75
2022-12-25T16:07:15.911Z,98236.06
2022-12-25T16:09:42.692Z,98243.91
2022-12-25T16:12:09.332Z,98244.78
2022-12-25T16:14:36.417Z,98246.53
2022-12-25T16:17:03.991Z,98248.28
2022-12-25T16:19:31.109Z,98231.47
2022-12-25T16:21:57.718Z,98227.91
2022-12-25T16:24:24.867Z,98236.69
2022-12-25T16:26:51.503Z,98227.88
2022-12-25T16:29:17.996Z,98230.47
2022-12-25T16:31:44.461Z,98229.56
2022-12-25T16:34:11.029Z,98221.63
2022-12-25T16:36:40.590Z,98223.31
2022-12-25T16:39:07.181Z,98210.97
2022-12-25T16:41:34.001Z,98207.44
2022-12-25T16:44:09.260Z,98203.03
2022-12-25T16:46:37.739Z,98195.03
2022-12-25T16:49:04.381Z,98199.31
2022-12-25T16:51:31.314Z,98196.75
2022-12-25T16:53:57.841Z,98205.56
2022-12-25T16:56:26.956Z,98206.38
2022-12-25T16:58:54.079Z,98201.06
2022-12-25T17:01:23.068Z,98212.47
2022-12-25T17:03:50.460Z,98194.88
2022-12-25T17:06:23.187Z,98212.53
2022-12-25T17:08:51.861Z,98200.19
2022-12-25T17:11:23.538Z,98194.88
2022-12-25T17:13:50.384Z,98203.66
2022-12-25T17:16:22.956Z,98220.44
2022-12-25T17:19:04.153Z,98189.63
2022-12-25T17:21:34.975Z,98215.97
2022-12-25T17:24:04.006Z,98213.22
2022-12-25T17:26:31.887Z,98208.94
2022-12-25T17:28:58.801Z,98206.38
2022-12-25T17:31:25.369Z,98189.72
2022-12-25T17:33:51.972Z,98175.63
2022-12-25T17:36:20.563Z,98166.84
2022-12-25T17:38:47.652Z,98173.97
2022-12-25T17:41:16.546Z,98168.69
2022-12-25T17:43:45.622Z,98167.84
2022-12-25T17:46:16.646Z,98166.94
2022-12-25T17:48:43.811Z,98161.66
2022-12-25T17:51:16.169Z,98139.63
2022-12-25T17:53:45.402Z,98135.22
2022-12-25T17:56:12.583Z,98153.75
2022-12-25T17:58:39.444Z,98159.91
2022-12-25T18:01:16.573Z,98152.81
2022-12-25T18:03:44.888Z,98158.94
2022-12-25T18:06:14.362Z,98158.06
2022-12-25T18:08:42.450Z,98149.25
2022-12-25T18:11:15.418Z,98145.75
2022-12-25T18:13:45.035Z,98162.41
2022-12-25T18:16:12.834Z,98152.78
2022-12-25T18:18:40.593Z,98140.47
2022-12-25T18:21:08.212Z,98145.81
2022-12-25T18:23:35.832Z,98136.13
2022-12-25T18:26:04.705Z,98140.50
2022-12-25T18:28:31.581Z,98145.75
2022-12-25T18:30:58.230Z,98136.97
2022-12-25T18:33:24.910Z,98121.16
2022-12-25T18:35:57.175Z,98142.25
2022-12-25T18:38:23.704Z,98127.31
2022-12-25T18:40:50.191Z,98121.09
2022-12-25T18:43:16.715Z,98092.84
2022-12-25T18:45:43.306Z,98126.28
2022-12-25T18:48:10.629Z,98125.28
2022-12-25T18:50:39.142Z,98090.03
2022-12-25T18:53:07.294Z,98113.81
2022-12-25T18:55:33.767Z,98110.34
2022-12-25T18:58:00.281Z,98107.66
2022-12-25T19:00:28.024Z,98105.03
2022-12-25T19:02:59.327Z,98092.72
2022-12-25T19:05:28.954Z,98100.66
2022-12-25T19:07:55.419Z,98099.75
2022-12-25T19:10:21.910Z,98103.13
2022-12-25T19:12:48.458Z,98110.19
2022-12-25T19:15:15.040Z,98114.63
2022-12-25T19:17:41.595Z,98111.00
2022-12-25T19:20:08.733Z,98086.38
2022-12-25T19:22:35.225Z,98096.09
2022-12-25T19:25:01.742Z,98110.06
2022-12-25T19:27:28.488Z,98102.09
2022-12-25T19:29:55.016Z,98105.69
2022-12-25T19:32:21.678Z,98093.38
2022-12-25T19:34:48.202Z,98090.81
2022-12-25T19:37:15.144Z,98093.47
2022-12-25T19:39:46.515Z,98089.94
2022-12-25T19:42:18.807Z,98087.25
2022-12-25T19:44:45.341Z,98069.66
2022-12-25T19:47:11.924Z,98083.69
2022-12-25T19:49:39.895Z,98074.91
2022-12-25T19:52:07.306Z,98066.13
2022-12-25T19:54:33.833Z,98067.00
2022-12-25T19:57:00.320Z,98051.16
2022-12-25T19:59:26.805Z,98059.94
2022-12-25T20:01:56.311Z,98060.72
2022-12-25T20:04:22.972Z,98058.94
2022-12-25T20:06:49.497Z,98057.13
2022-12-25T20:09:21.767Z,98032.47
2022-12-25T20:11:48.705Z,98051.78
2022-12-25T20:14:16.431Z,98045.59
2022-12-25T20:16:43.932Z,98062.28
2022-12-25T20:19:13.042Z,98055.25
2022-12-25T20:21:40.169Z,98060.59
2022-12-25T20:24:10.147Z,98055.28
2022-12-25T20:26:37.734Z,98046.47
2022-12-25T20:29:05.107Z,98055.25
2022-12-25T20:31:33.963Z,98049.03
2022-12-25T20:34:05.809Z,98038.44
2022-12-25T20:36:36.784Z,98055.16
2022-12-25T20:39:05.057Z,98042.91
2022-12-25T20:41:32.131Z,98031.41
2022-12-25T20:43:58.734Z,98040.22
2022-12-25T20:46:26.572Z,98051.72
2022-12-25T20:48:53.465Z,98040.25
2022-12-25T20:51:23.039Z,98047.22
2022-12-25T20:53:49.846Z,98052.50
2022-12-25T20:56:18.820Z,98053.34
2022-12-25T20:58:45.330Z,98056.84
2022-12-25T21:01:14.415Z,98059.44
2022-12-25T21:03:41.343Z,98070.03
2022-12-25T21:06:08.912Z,98064.75
2022-12-25T21:08:36.432Z,98076.19
2022-12-25T21:11:04.113Z,98067.31
2022-12-25T21:13:36.549Z,98037.31
2022-12-25T21:16:08.523Z,98061.97
2022-12-25T21:18:35.184Z,98076.97
2022-12-25T21:21:05.616Z,98084.97
2022-12-25T21:23:36.909Z,98061.19
2022-12-25T21:26:15.915Z,98086.75
2022-12-25T21:28:42.530Z,98072.53
2022-12-25T21:31:10.215Z,98074.31
2022-12-25T21:33:52.218Z,98084.06
2022-12-25T21:36:20.426Z,98103.47
2022-12-25T21:38:47.265Z,98106.16
2022-12-25T21:41:15.488Z,98105.28
2022-12-25T21:43:42.906Z,98111.50
2022-12-25T21:46:12.570Z,98092.91
2022-12-25T21:48:42.130Z,98099.19
2022-12-25T21:51:30.030Z,98110.59
2022-12-25T21:53:56.849Z,98111.50
2022-12-25T21:56:23.324Z,98110.63
2022-12-25T21:58:49.833Z,98104.47
2022-12-25T22:01:16.957Z,98116.84
2022-12-25T22:03:44.631Z,98106.34
2022-12-25T22:06:30.884Z,98095.78
2022-12-25T22:08:57.494Z,98097.69
2022-12-25T22:11:44.137Z,98093.28
2022-12-25T22:14:51.936Z,98096.78
2022-12-25T22:17:41.601Z,98098.50
2022-12-25T22:20:10.772Z,98095.84
2022-12-25T22:22:38.024Z,98096.69
2022-12-25T22:25:06.321Z,98094.00
2022-12-25T22:27:36.267Z,98095.72
2022-12-25T22:30:03.089Z,98099.19
2022-12-25T22:32:29.674Z,98092.16
2022-12-25T22:34:56.325Z,98085.09
2022-12-25T22:37:22.884Z,98087.72
2022-12-25T22:39:49.391Z,98086.81
2022-12-25T22:42:16.532Z,98080.66
2022-12-25T22:44:43.351Z,98103.53
2022-12-25T22:47:09.834Z,98092.91
2022-12-25T22:49:36.348Z,98108.78
2022-12-25T22:52:03.405Z,98107.03
2022-12-25T22:54:31.725Z,98122.81
2022-12-25T22:56:58.526Z,98123.72
2022-12-25T22:59:25.506Z,98128.97
2022-12-25T23:01:56.208Z,98131.63
2022-12-25T23:04:23.918Z,98125.44
2022-12-25T23:06:50.942Z,98128.09
2022-12-25T23:09:24.500Z,98120.16
2022-12-25T23:11:51.457Z,98127.25
2022-12-25T23:14:36.792Z,98125.41
2022-12-25T23:17:03.803Z,98121.91
2022-12-25T23:19:48.971Z,98129.88
2022-12-25T23:22:34.391Z,98121.03
2022-12-25T23:25:19.153Z,98125.63
2022-12-25T23:27:46.038Z,98124.78
2022-12-25T23:30:16.847Z,98131.84
2022-12-25T23:32:44.342Z,98141.53
2022-12-25T23:35:14.360Z,98141.50
2022-12-25T23:37:40.823Z,98133.63
2022-12-25T23:40:08.284Z,98140.75
2022-12-25T23:42:34.762Z,98147.81
2022-12-25T23:45:01.256Z,98125.75
2022-12-25T23:47:27.796Z,98124.03
2022-12-25T23:49:54.277Z,98133.78
2022-12-25T23:52:20.760Z,98139.06
2022-12-25T23:54:47.200Z,98134.66
2022-12-25T23:57:13.674Z,98134.72
2022-12-25T23:59:40.149Z,98134.66
